Time;durP1;ratioP1;P1;durP2;ratioP2;P2;SDS_P1;SDS_P2;PMS_P1;PMS_P2;Temp;Humidity;BMP_temperature;BMP_pressure;BME280_temperature;BME280_humidity;BME280_pressure;Samples;Min_cycle;Max_cycle;Signal;HPM_P1;HPM_P2
2024/03/01 00:01:59;;;;;;;10.68;7.75;;;8.20;99.90;;;;;;4979931;28;20485;-80
2024/03/01 00:04:25;;;;;;;9.32;7.50;;;8.20;99.90;;;;;;4981652;28;22417;-81
2024/03/01 00:06:52;;;;;;;11.75;8.20;;;8.20;99.90;;;;;;4994885;28;20048;-80
2024/03/01 00:09:18;;;;;;;10.80;7.45;;;8.20;99.90;;;;;;4997357;28;20048;-80
2024/03/01 00:11:45;;;;;;;8.70;7.20;;;8.20;99.90;;;;;;4984839;28;20044;-80
2024/03/01 00:14:11;;;;;;;11.15;7.93;;;8.20;99.90;;;;;;5001917;28;20041;-80
2024/03/01 00:16:37;;;;;;;9.63;7.05;;;8.20;99.90;;;;;;4996845;28;20053;-80
2024/03/01 00:19:03;;;;;;;11.38;8.77;;;8.20;99.90;;;;;;4997355;28;20043;-80
2024/03/01 00:21:30;;;;;;;11.10;8.13;;;8.20;99.90;;;;;;4978917;28;20095;-80
2024/03/01 00:23:56;;;;;;;9.55;7.70;;;8.30;99.90;;;;;;4980393;28;20041;-80
2024/03/01 00:26:22;;;;;;;8.73;6.65;;;8.30;99.90;;;;;;4983013;28;20032;-80
2024/03/01 00:28:48;;;;;;;11.35;7.25;;;8.20;99.90;;;;;;5033827;28;20021;-81
2024/03/01 00:31:15;;;;;;;11.75;8.52;;;8.30;99.90;;;;;;4999715;28;20057;-81
2024/03/01 00:33:41;;;;;;;11.18;8.52;;;8.30;99.90;;;;;;5030189;28;20044;-81
2024/03/01 00:36:08;;;;;;;10.77;7.97;;;8.30;99.90;;;;;;4979979;28;20174;-81
2024/03/01 00:38:34;;;;;;;10.32;7.55;;;8.30;99.90;;;;;;4981338;28;20041;-81
2024/03/01 00:41:01;;;;;;;10.18;7.55;;;8.30;99.90;;;;;;4996044;28;20048;-81
2024/03/01 00:43:27;;;;;;;7.85;6.78;;;8.30;99.90;;;;;;5000567;28;20057;-81
2024/03/01 00:45:54;;;;;;;12.65;8.75;;;8.30;99.90;;;;;;5003719;28;20068;-81
2024/03/01 00:48:20;;;;;;;11.45;7.35;;;8.30;99.90;;;;;;4983067;28;20065;-81
2024/03/01 00:50:47;;;;;;;11.02;7.40;;;8.20;99.90;;;;;;4980572;28;20036;-81
2024/03/01 00:53:14;;;;;;;11.55;7.72;;;8.30;99.90;;;;;;4980209;28;20498;-81
2024/03/01 00:55:41;;;;;;;11.15;8.27;;;8.20;99.90;;;;;;4981178;28;20028;-81
2024/03/01 00:58:08;;;;;;;10.68;8.38;;;8.20;99.90;;;;;;4964568;28;20068;-81
2024/03/01 01:00:34;;;;;;;12.35;8.63;;;8.30;99.90;;;;;;4998635;28;20048;-82
2024/03/01 01:03:01;;;;;;;11.05;8.02;;;8.30;99.90;;;;;;4988504;28;20488;-82
2024/03/01 01:05:28;;;;;;;9.35;7.57;;;8.20;99.90;;;;;;4984373;28;20401;-82
2024/03/01 01:07:54;;;;;;;12.10;8.43;;;8.30;99.90;;;;;;4982558;28;20041;-82
2024/03/01 01:10:20;;;;;;;12.93;9.38;;;8.30;99.90;;;;;;4981355;28;20025;-80
2024/03/01 01:12:47;;;;;;;13.05;8.93;;;8.30;99.90;;;;;;4998994;28;20045;-82
2024/03/01 01:15:13;;;;;;;13.18;8.95;;;8.30;99.90;;;;;;4983554;28;20045;-82
2024/03/01 01:17:40;;;;;;;10.23;8.32;;;8.30;99.90;;;;;;4998694;28;20607;-82
2024/03/01 01:20:07;;;;;;;11.63;8.20;;;8.30;99.90;;;;;;5002424;28;20037;-82
2024/03/01 01:22:34;;;;;;;12.48;8.63;;;8.30;99.90;;;;;;5004571;28;20034;-82
2024/03/01 01:25:00;;;;;;;11.70;8.18;;;8.30;99.90;;;;;;5032482;28;20385;-81
2024/03/01 01:27:27;;;;;;;11.75;8.10;;;8.30;99.90;;;;;;4978445;28;20064;-81
2024/03/01 01:29:53;;;;;;;12.40;9.48;;;8.30;99.90;;;;;;4983328;28;20045;-82
2024/03/01 01:32:19;;;;;;;10.93;8.35;;;8.30;99.90;;;;;;5000288;28;20380;-81
2024/03/01 01:34:46;;;;;;;11.63;9.02;;;8.30;99.90;;;;;;4981393;28;20358;-81
2024/03/01 01:37:12;;;;;;;10.90;8.40;;;8.30;99.90;;;;;;5001880;28;20391;-80
2024/03/01 01:39:39;;;;;;;13.10;9.65;;;8.30;99.90;;;;;;4983915;28;20060;-82
2024/03/01 01:42:05;;;;;;;12.32;8.25;;;8.30;99.90;;;;;;4985104;28;20065;-81
2024/03/01 01:44:32;;;;;;;13.98;8.98;;;8.40;99.90;;;;;;4999967;28;20029;-81
2024/03/01 01:46:59;;;;;;;13.23;9.30;;;8.30;99.90;;;;;;4965941;28;20038;-82
2024/03/01 01:49:27;;;;;;;12.80;9.00;;;8.40;99.90;;;;;;4999530;28;20045;-81
2024/03/01 01:51:53;;;;;;;12.85;9.05;;;8.40;99.90;;;;;;4998712;28;20041;-82
2024/03/01 01:54:20;;;;;;;12.57;9.25;;;8.40;99.90;;;;;;5002471;28;20037;-81
2024/03/01 01:56:47;;;;;;;13.98;9.68;;;8.40;99.90;;;;;;4985515;28;20441;-81
2024/03/01 01:59:14;;;;;;;13.77;10.45;;;8.40;99.90;;;;;;4964280;28;20053;-80
2024/03/01 02:01:41;;;;;;;14.10;10.35;;;8.40;99.90;;;;;;4980458;28;20030;-82
2024/03/01 02:04:07;;;;;;;14.18;9.80;;;8.40;99.90;;;;;;4982394;28;20535;-81
2024/03/01 02:06:34;;;;;;;13.45;10.05;;;8.40;99.90;;;;;;4997468;28;20036;-82
2024/03/01 02:09:01;;;;;;;12.88;9.60;;;8.40;99.90;;;;;;5001985;28;20043;-82
2024/03/01 02:11:27;;;;;;;13.25;9.95;;;8.40;99.90;;;;;;4987730;28;20354;-82
2024/03/01 02:13:57;;;;;;;12.75;8.52;;;8.40;99.90;;;;;;5002936;28;20033;-82
2024/03/01 02:16:23;;;;;;;13.55;9.95;;;8.40;99.90;;;;;;5014638;28;20037;-82
2024/03/01 02:18:50;;;;;;;12.25;8.35;;;8.40;99.90;;;;;;4983523;28;20025;-83
2024/03/01 02:21:22;;;;;;;13.82;10.30;;;8.40;99.90;;;;;;4996727;28;20045;-82
2024/03/01 02:23:49;;;;;;;15.38;10.35;;;8.40;99.90;;;;;;4998233;28;20965;-83
2024/03/01 02:26:15;;;;;;;13.80;9.88;;;8.40;99.90;;;;;;4979700;28;20029;-82
2024/03/01 02:28:44;;;;;;;13.05;9.10;;;8.40;99.90;;;;;;4980276;28;20045;-82
2024/03/01 02:31:11;;;;;;;13.50;10.13;;;8.40;99.90;;;;;;5030165;28;20044;-81
2024/03/01 02:33:37;;;;;;;13.70;10.38;;;8.40;99.90;;;;;;4981227;28;20042;-82
2024/03/01 02:36:04;;;;;;;12.73;9.63;;;8.40;99.90;;;;;;4997453;28;20040;-81
2024/03/01 02:38:31;;;;;;;11.52;8.20;;;8.40;99.90;;;;;;4986478;28;20041;-81
2024/03/01 02:40:57;;;;;;;11.30;8.98;;;8.40;99.90;;;;;;4980967;28;20041;-82
2024/03/01 02:43:23;;;;;;;14.65;10.73;;;8.40;99.90;;;;;;5030097;28;20037;-83
2024/03/01 02:45:50;;;;;;;13.57;10.18;;;8.30;99.90;;;;;;4967987;28;20496;-82
2024/03/01 02:48:16;;;;;;;16.92;11.45;;;8.30;99.90;;;;;;5001949;28;20078;-82
2024/03/01 02:50:42;;;;;;;16.48;11.73;;;8.40;99.90;;;;;;5012490;28;20040;-81
2024/03/01 02:53:09;;;;;;;12.23;10.02;;;8.30;99.90;;;;;;4979345;28;20048;-81
2024/03/01 02:55:35;;;;;;;15.60;11.25;;;8.30;99.90;;;;;;4980313;28;20045;-81
2024/03/01 02:58:04;;;;;;;16.48;12.02;;;8.20;99.90;;;;;;4978647;28;20033;-82
2024/03/01 03:00:31;;;;;;;16.10;11.65;;;8.20;99.90;;;;;;4995875;28;20042;-81
2024/03/01 03:02:58;;;;;;;14.98;11.43;;;8.10;99.90;;;;;;4984638;28;20032;-84
2024/03/01 03:05:24;;;;;;;16.52;12.88;;;8.10;99.90;;;;;;4998068;28;20037;-83
2024/03/01 03:07:51;;;;;;;18.02;13.05;;;8.10;99.90;;;;;;4965494;28;20043;-84
2024/03/01 03:10:17;;;;;;;18.40;12.75;;;8.10;99.90;;;;;;4983579;28;20040;-83
2024/03/01 03:12:44;;;;;;;18.65;12.93;;;8.00;99.90;;;;;;4995924;28;20484;-82
2024/03/01 03:15:11;;;;;;;19.98;13.73;;;8.00;99.90;;;;;;4980909;28;20025;-83
2024/03/01 03:17:37;;;;;;;18.13;13.02;;;8.00;99.90;;;;;;4981335;28;20025;-83
2024/03/01 03:20:10;;;;;;;19.05;12.93;;;7.90;99.90;;;;;;5002268;28;20037;-80
2024/03/01 03:22:44;;;;;;;18.80;13.32;;;7.90;99.90;;;;;;4967000;28;20071;-83
2024/03/01 03:25:14;;;;;;;22.67;15.77;;;7.90;99.90;;;;;;4993369;28;20045;-83
2024/03/01 03:27:41;;;;;;;19.80;13.82;;;7.80;99.90;;;;;;5010513;28;20042;-83
2024/03/01 03:30:08;;;;;;;18.90;13.30;;;7.80;99.90;;;;;;4976485;28;20042;-82
2024/03/01 03:32:35;;;;;;;18.08;12.88;;;7.70;99.90;;;;;;4980718;28;20076;-82
2024/03/01 03:35:01;;;;;;;19.83;13.75;;;7.70;99.90;;;;;;4982612;28;20034;-84
2024/03/01 03:37:27;;;;;;;18.95;14.88;;;7.60;99.90;;;;;;4987219;28;20424;-84
2024/03/01 03:39:54;;;;;;;20.38;15.02;;;7.60;99.90;;;;;;4984161;28;20044;-82
2024/03/01 03:42:20;;;;;;;21.02;14.15;;;7.60;99.90;;;;;;4996418;28;20048;-83
2024/03/01 03:44:46;;;;;;;22.20;14.15;;;7.60;99.90;;;;;;4996445;28;20038;-83
2024/03/01 03:47:13;;;;;;;19.73;13.35;;;7.60;99.90;;;;;;4983301;28;20330;-83
2024/03/01 03:49:39;;;;;;;20.65;14.07;;;7.60;99.90;;;;;;5029872;28;20025;-80
2024/03/01 03:52:06;;;;;;;20.75;15.63;;;7.70;99.90;;;;;;4985558;28;20375;-81
2024/03/01 03:54:32;;;;;;;21.52;15.35;;;7.70;99.90;;;;;;4987326;28;20029;-82
2024/03/01 03:56:58;;;;;;;19.75;14.13;;;7.70;99.90;;;;;;4984211;28;20045;-82
2024/03/01 03:59:25;;;;;;;22.48;14.23;;;7.70;99.90;;;;;;4998113;28;20045;-84
2024/03/01 04:01:51;;;;;;;24.52;16.13;;;7.80;99.90;;;;;;5014094;28;20528;-85
2024/03/01 04:04:18;;;;;;;22.52;14.32;;;7.80;99.90;;;;;;4967725;28;20029;-85
2024/03/01 04:06:44;;;;;;;21.23;15.75;;;7.80;99.90;;;;;;4998476;28;20052;-84
2024/03/01 04:09:12;;;;;;;21.60;14.80;;;7.80;99.90;;;;;;4986796;28;20048;-86
2024/03/01 04:11:40;;;;;;;22.77;14.00;;;7.80;99.90;;;;;;4971795;28;20029;-85
2024/03/01 04:14:10;;;;;;;21.58;14.32;;;7.80;99.90;;;;;;4973383;28;21429;-84
2024/03/01 04:16:37;;;;;;;19.88;14.23;;;7.80;99.90;;;;;;4997771;28;20460;-82
2024/03/01 04:19:03;;;;;;;20.60;14.15;;;7.80;99.90;;;;;;5002568;28;20041;-84
2024/03/01 04:21:30;;;;;;;22.63;16.55;;;7.80;99.90;;;;;;4999846;28;20044;-83
2024/03/01 04:23:56;;;;;;;19.55;13.68;;;7.80;99.90;;;;;;4999076;28;20064;-80
2024/03/01 04:26:22;;;;;;;19.95;13.77;;;7.80;99.90;;;;;;5032511;28;20025;-82
2024/03/01 04:28:49;;;;;;;22.48;15.18;;;7.80;99.90;;;;;;4996447;28;20056;-82
2024/03/01 04:31:16;;;;;;;21.95;14.27;;;7.90;99.90;;;;;;4987722;28;20048;-82
2024/03/01 04:33:42;;;;;;;19.10;13.98;;;7.90;99.90;;;;;;4983738;28;20037;-83
2024/03/01 04:36:09;;;;;;;21.42;15.23;;;7.90;99.90;;;;;;4997421;28;20040;-83
2024/03/01 04:38:36;;;;;;;20.27;14.30;;;7.90;99.90;;;;;;4998557;28;20044;-80
2024/03/01 04:41:03;;;;;;;20.77;14.38;;;7.90;99.90;;;;;;4997780;28;20030;-82
2024/03/01 04:43:30;;;;;;;17.23;11.98;;;8.00;99.90;;;;;;5000912;28;20468;-83
2024/03/01 04:45:56;;;;;;;14.30;10.40;;;8.00;99.90;;;;;;4999959;28;20412;-80
2024/03/01 04:48:23;;;;;;;12.82;9.50;;;8.00;99.90;;;;;;4999528;28;20034;-83
2024/03/01 04:50:49;;;;;;;11.15;9.48;;;8.00;99.90;;;;;;4996862;28;20038;-79
2024/03/01 04:53:15;;;;;;;11.13;8.25;;;8.10;99.90;;;;;;4980573;28;20050;-80
2024/03/01 04:55:42;;;;;;;8.25;7.45;;;8.10;99.90;;;;;;4966100;28;20048;-80
2024/03/01 04:58:08;;;;;;;9.10;7.45;;;8.20;99.90;;;;;;4980362;28;20044;-82
2024/03/01 05:00:35;;;;;;;7.95;6.75;;;8.20;99.90;;;;;;4984061;28;20039;-82
2024/03/01 05:03:06;;;;;;;7.28;6.15;;;8.20;99.90;;;;;;4985890;28;20826;-82
2024/03/01 05:05:33;;;;;;;7.78;6.97;;;8.20;99.90;;;;;;4984339;28;20048;-83
2024/03/01 05:08:00;;;;;;;7.13;5.90;;;8.20;99.90;;;;;;4994916;28;20033;-85
2024/03/01 05:10:26;;;;;;;7.35;6.03;;;8.20;99.90;;;;;;4980345;28;20037;-83
2024/03/01 05:12:52;;;;;;;7.32;6.10;;;8.10;99.90;;;;;;4997358;28;20412;-82
2024/03/01 05:15:19;;;;;;;7.75;6.90;;;8.10;99.90;;;;;;4981295;28;20037;-84
2024/03/01 05:17:46;;;;;;;6.25;5.45;;;8.10;99.90;;;;;;4967738;28;20498;-83
2024/03/01 05:20:14;;;;;;;6.78;5.80;;;8.10;99.90;;;;;;5004210;28;20045;-84
2024/03/01 05:22:46;;;;;;;7.57;6.00;;;8.10;99.90;;;;;;5001327;28;20049;-82
2024/03/01 05:25:15;;;;;;;6.05;5.28;;;8.10;99.90;;;;;;4982499;28;20684;-81
2024/03/01 05:27:48;;;;;;;7.45;5.60;;;8.00;99.90;;;;;;4981384;28;20049;-82
2024/03/01 05:30:23;;;;;;;6.63;5.28;;;8.00;99.90;;;;;;4981155;28;20053;-83
2024/03/01 05:32:51;;;;;;;7.13;5.32;;;8.00;99.90;;;;;;4997344;28;20034;-82
2024/03/01 05:35:21;;;;;;;6.63;5.35;;;7.90;99.90;;;;;;5001292;28;20032;-82
2024/03/01 05:37:49;;;;;;;6.55;4.28;;;7.90;99.90;;;;;;4983165;28;20049;-84
2024/03/01 05:40:16;;;;;;;6.68;4.50;;;7.90;99.90;;;;;;4965165;28;20042;-84
2024/03/01 05:42:46;;;;;;;5.03;3.30;;;7.80;99.90;;;;;;4967489;28;20029;-82
2024/03/01 05:45:13;;;;;;;3.45;2.78;;;7.70;99.90;;;;;;4996805;28;20029;-83
2024/03/01 05:47:41;;;;;;;3.28;1.90;;;7.60;99.90;;;;;;4967313;28;20366;-82
2024/03/01 05:50:09;;;;;;;2.90;2.22;;;7.60;99.90;;;;;;5010634;28;20037;-83
2024/03/01 05:52:42;;;;;;;5.28;2.00;;;7.50;99.90;;;;;;4983091;28;21223;-83
2024/03/01 05:55:14;;;;;;;4.53;1.63;;;7.50;99.90;;;;;;4987977;28;20040;-82
2024/03/01 05:57:44;;;;;;;3.03;1.75;;;7.40;99.90;;;;;;4999930;28;20322;-84
2024/03/01 06:00:26;;;;;;;3.45;1.90;;;7.40;99.90;;;;;;4996066;28;20048;-83
2024/03/01 06:02:53;;;;;;;4.70;1.85;;;7.30;99.90;;;;;;5030980;28;20148;-85
2024/03/01 06:05:19;;;;;;;4.00;2.05;;;7.20;99.90;;;;;;4981894;28;20041;-84
2024/03/01 06:07:46;;;;;;;5.05;2.15;;;7.20;99.90;;;;;;4966947;28;20060;-86
2024/03/01 06:10:13;;;;;;;3.85;1.88;;;7.10;99.90;;;;;;4980225;28;20025;-81
2024/03/01 06:12:40;;;;;;;3.25;1.77;;;7.10;99.90;;;;;;4987752;28;20025;-81
2024/03/01 06:15:07;;;;;;;4.43;2.13;;;7.10;99.90;;;;;;4968475;28;20048;-80
2024/03/01 06:17:34;;;;;;;4.97;2.75;;;7.20;99.90;;;;;;4964895;28;20025;-83
2024/03/01 06:20:02;;;;;;;4.85;2.20;;;7.20;99.90;;;;;;4965727;28;21218;-82
2024/03/01 06:22:30;;;;;;;3.83;2.97;;;7.20;99.90;;;;;;4998842;28;20044;-83
2024/03/01 06:24:56;;;;;;;4.93;2.95;;;7.20;99.90;;;;;;5000028;28;20029;-83
2024/03/01 06:27:23;;;;;;;6.00;3.72;;;7.20;99.90;;;;;;4998864;28;20036;-80
2024/03/01 06:29:49;;;;;;;4.90;3.15;;;7.20;99.90;;;;;;4984551;28;20030;-83
2024/03/01 06:32:16;;;;;;;3.45;2.83;;;7.20;99.90;;;;;;5016812;28;20038;-83
2024/03/01 06:34:42;;;;;;;4.68;3.40;;;7.20;99.90;;;;;;4983035;28;20044;-81
2024/03/01 06:37:09;;;;;;;4.30;2.80;;;7.20;99.90;;;;;;4997411;28;20057;-82
2024/03/01 06:39:35;;;;;;;6.55;4.03;;;7.20;99.90;;;;;;4981093;28;21206;-80
2024/03/01 06:42:03;;;;;;;7.22;3.38;;;7.20;99.90;;;;;;5000109;28;20030;-83
2024/03/01 06:44:29;;;;;;;5.95;4.22;;;7.20;99.90;;;;;;5002770;28;20048;-83
2024/03/01 06:46:56;;;;;;;7.00;5.05;;;7.20;99.90;;;;;;4985366;28;20038;-84
2024/03/01 06:49:22;;;;;;;6.20;5.28;;;7.20;99.90;;;;;;4979107;28;20041;-85
2024/03/01 06:51:49;;;;;;;7.75;4.63;;;7.30;99.90;;;;;;4995511;28;20029;-86
2024/03/01 06:54:15;;;;;;;5.68;4.18;;;7.30;99.90;;;;;;4980646;28;20590;-85
2024/03/01 06:56:42;;;;;;;6.95;5.13;;;7.30;99.90;;;;;;4993828;28;20044;-83
2024/03/01 06:59:09;;;;;;;6.78;4.18;;;7.30;99.90;;;;;;4994240;28;20045;-83
2024/03/01 07:01:38;;;;;;;6.80;4.63;;;7.30;99.90;;;;;;4998345;28;20141;-86
2024/03/01 07:04:05;;;;;;;6.35;4.93;;;7.30;99.90;;;;;;4986172;28;20037;-82
2024/03/01 07:06:33;;;;;;;6.13;5.35;;;7.40;99.90;;;;;;4983483;28;20489;-80
2024/03/01 07:08:59;;;;;;;6.82;5.60;;;7.40;99.90;;;;;;4993922;28;20029;-83
2024/03/01 07:11:26;;;;;;;7.55;5.95;;;7.40;99.90;;;;;;4978427;28;20029;-81
2024/03/01 07:13:53;;;;;;;7.55;6.07;;;7.50;99.90;;;;;;4964718;28;20040;-82
2024/03/01 07:16:19;;;;;;;9.25;6.47;;;7.50;99.90;;;;;;4983788;28;20037;-82
2024/03/01 07:18:45;;;;;;;10.98;6.32;;;7.50;99.90;;;;;;5003480;28;20030;-82
2024/03/01 07:21:12;;;;;;;7.28;4.78;;;7.50;99.90;;;;;;5000368;28;20051;-79
2024/03/01 07:23:38;;;;;;;10.65;4.55;;;7.50;99.90;;;;;;4984196;28;20048;-81
2024/03/01 07:26:04;;;;;;;9.18;5.45;;;7.50;99.90;;;;;;4970775;28;20068;-80
2024/03/01 07:28:31;;;;;;;5.05;3.85;;;7.50;99.90;;;;;;4999243;28;20025;-81
2024/03/01 07:30:57;;;;;;;9.02;5.93;;;7.50;99.90;;;;;;4983422;28;20052;-81
2024/03/01 07:33:23;;;;;;;7.18;4.05;;;7.50;99.90;;;;;;4987405;28;20484;-82
2024/03/01 07:35:50;;;;;;;5.60;3.92;;;7.40;99.90;;;;;;4988424;28;20029;-81
2024/03/01 07:38:16;;;;;;;9.30;4.25;;;7.40;99.90;;;;;;4971165;28;20029;-82
2024/03/01 07:40:43;;;;;;;7.07;4.80;;;7.40;99.90;;;;;;5001278;28;20392;-83
2024/03/01 07:43:09;;;;;;;6.80;5.72;;;7.40;99.90;;;;;;5000660;28;20515;-85
2024/03/01 07:45:35;;;;;;;8.48;5.63;;;7.40;99.90;;;;;;4999458;28;20033;-80
2024/03/01 07:48:04;;;;;;;11.02;6.10;;;7.40;99.90;;;;;;4999219;28;20400;-83
2024/03/01 07:50:30;;;;;;;9.07;5.13;;;7.40;99.90;;;;;;4997620;28;20506;-81
2024/03/01 07:52:58;;;;;;;9.98;6.50;;;7.40;99.90;;;;;;4987006;28;20512;-82
2024/03/01 07:55:25;;;;;;;10.73;6.50;;;7.50;99.90;;;;;;5004568;28;20041;-82
2024/03/01 07:57:51;;;;;;;7.80;6.82;;;7.40;99.90;;;;;;5017349;28;20389;-81
2024/03/01 08:00:18;;;;;;;7.05;5.97;;;7.50;99.90;;;;;;4981882;28;20046;-81
2024/03/01 08:02:44;;;;;;;8.27;5.97;;;7.50;99.90;;;;;;4982174;28;20253;-86
2024/03/01 08:05:11;;;;;;;10.38;6.72;;;7.50;99.90;;;;;;4984506;28;20036;-82
2024/03/01 08:07:37;;;;;;;10.15;6.28;;;7.50;99.90;;;;;;4983351;28;20029;-82
2024/03/01 08:10:07;;;;;;;8.40;5.75;;;7.60;99.90;;;;;;4998529;28;20081;-81
2024/03/01 08:12:34;;;;;;;7.88;6.60;;;7.60;99.90;;;;;;5003041;28;20052;-81
2024/03/01 08:15:07;;;;;;;11.38;7.35;;;7.60;99.90;;;;;;4985409;28;20036;-82
2024/03/01 08:17:34;;;;;;;11.68;6.80;;;7.60;99.90;;;;;;4986243;28;20507;-82
2024/03/01 08:20:10;;;;;;;10.73;6.70;;;7.50;99.90;;;;;;4982459;28;20045;-83
2024/03/01 08:22:36;;;;;;;10.07;7.43;;;7.50;99.90;;;;;;4998752;28;20041;-82
2024/03/01 08:25:06;;;;;;;10.85;7.47;;;7.60;99.90;;;;;;5002876;28;20041;-81
2024/03/01 08:27:33;;;;;;;9.77;7.32;;;7.60;99.90;;;;;;5003000;28;20025;-82
2024/03/01 08:30:01;;;;;;;16.65;8.85;;;7.60;99.90;;;;;;5005869;28;21391;-80
2024/03/01 08:32:41;;;;;;;13.45;9.00;;;7.60;99.90;;;;;;5004759;28;20364;-82
2024/03/01 08:35:14;;;;;;;14.05;10.98;;;7.70;99.90;;;;;;4979500;28;20068;-81
2024/03/01 08:37:40;;;;;;;18.15;10.70;;;7.90;99.90;;;;;;4980425;28;20037;-83
2024/03/01 08:40:36;;;;;;;15.77;11.73;;;7.90;99.90;;;;;;4980435;28;20069;-82
2024/03/01 08:43:03;;;;;;;17.85;11.68;;;8.00;99.90;;;;;;4966500;28;20037;-82
2024/03/01 08:45:44;;;;;;;13.32;11.60;;;8.10;99.90;;;;;;4965832;28;20040;-81
2024/03/01 08:48:21;;;;;;;16.45;12.30;;;8.20;99.90;;;;;;4986836;28;20036;-82
2024/03/01 08:50:50;;;;;;;18.48;12.88;;;8.30;99.90;;;;;;4986854;28;20378;-82
2024/03/01 08:53:47;;;;;;;19.92;14.90;;;8.30;99.90;;;;;;5017094;28;20392;-82
2024/03/01 08:56:18;;;;;;;17.40;14.57;;;8.40;99.90;;;;;;4982244;28;20532;-82
2024/03/01 08:58:46;;;;;;;19.35;15.15;;;8.50;99.90;;;;;;4998322;28;20044;-83
2024/03/01 09:01:45;;;;;;;17.02;14.45;;;8.60;99.90;;;;;;4980740;28;20041;-84
2024/03/01 09:04:19;;;;;;;19.25;14.95;;;8.70;99.90;;;;;;4998968;28;20413;-82
2024/03/01 09:07:03;;;;;;;19.83;15.77;;;8.70;99.90;;;;;;5003390;28;20036;-83
2024/03/01 09:09:29;;;;;;;18.25;15.55;;;8.80;99.90;;;;;;4982778;28;20037;-83
2024/03/01 09:11:57;;;;;;;17.73;15.75;;;8.80;99.90;;;;;;4982573;28;20044;-82
2024/03/01 09:14:31;;;;;;;18.05;15.30;;;8.90;99.90;;;;;;4966276;28;20045;-80
2024/03/01 09:17:01;;;;;;;18.00;15.38;;;8.90;99.90;;;;;;4965911;28;20044;-83
2024/03/01 09:19:35;;;;;;;17.02;14.38;;;9.00;99.90;;;;;;4967028;28;20994;-81
2024/03/01 09:22:04;;;;;;;18.92;14.55;;;9.00;99.90;;;;;;4982631;28;20041;-79
2024/03/01 09:24:35;;;;;;;16.10;13.73;;;9.00;99.90;;;;;;4997686;28;21156;-81
2024/03/01 09:27:08;;;;;;;19.10;15.13;;;9.00;99.90;;;;;;4981430;28;20037;-81
2024/03/01 09:29:36;;;;;;;20.90;16.73;;;9.00;99.90;;;;;;4982929;28;20397;-80
2024/03/01 09:32:05;;;;;;;21.85;15.82;;;9.00;99.90;;;;;;4977487;28;20041;-81
2024/03/01 09:34:36;;;;;;;18.85;14.57;;;9.00;99.90;;;;;;4991977;28;20037;-78
2024/03/01 09:37:05;;;;;;;25.08;19.33;;;9.00;99.90;;;;;;4991027;28;20029;-78
2024/03/01 09:39:33;;;;;;;16.58;14.40;;;9.00;99.90;;;;;;4974853;28;20049;-78
2024/03/01 09:42:26;;;;;;;17.20;14.10;;;8.90;99.90;;;;;;4996252;28;20044;-83
2024/03/01 09:45:19;;;;;;;16.17;12.30;;;8.70;99.90;;;;;;4982706;28;20040;-80
2024/03/01 09:48:08;;;;;;;16.10;12.90;;;8.60;99.90;;;;;;4995888;28;20288;-81
2024/03/01 09:50:57;;;;;;;14.40;11.05;;;8.70;99.90;;;;;;4995156;28;20613;-79
2024/03/01 09:53:39;;;;;;;12.90;10.07;;;8.90;99.90;;;;;;4993588;28;20417;-79
2024/03/01 09:56:30;;;;;;;15.05;10.98;;;9.20;99.90;;;;;;4997545;28;20041;-80
2024/03/01 09:59:37;;;;;;;13.00;10.20;;;9.40;99.90;;;;;;4998352;28;20040;-79
2024/03/01 10:02:29;;;;;;;15.18;12.13;;;9.50;99.90;;;;;;4988303;28;20049;-78
2024/03/01 10:05:20;;;;;;;12.85;9.90;;;9.80;99.90;;;;;;5014430;28;20033;-78
2024/03/01 10:07:52;;;;;;;10.27;7.70;;;9.90;99.90;;;;;;4997725;28;20055;-80
2024/03/01 10:10:49;;;;;;;10.40;7.07;;;10.00;99.90;;;;;;4973950;28;20029;-81
2024/03/01 10:13:44;;;;;;;8.30;6.32;;;10.10;99.90;;;;;;4980185;28;20425;-81
2024/03/01 10:16:38;;;;;;;8.52;6.10;;;10.00;99.90;;;;;;5000795;28;20016;-81
2024/03/01 10:19:30;;;;;;;10.20;7.63;;;10.00;99.90;;;;;;5010895;28;20389;-81
2024/03/01 10:21:56;;;;;;;10.75;7.35;;;10.00;99.90;;;;;;4981811;28;20171;-81
2024/03/01 10:24:35;;;;;;;11.88;6.22;;;10.20;99.90;;;;;;4980281;28;21418;-81
2024/03/01 10:27:23;;;;;;;8.32;4.82;;;10.40;99.90;;;;;;4980814;28;20041;-81
2024/03/01 10:30:14;;;;;;;5.53;3.97;;;10.90;99.90;;;;;;5009115;28;20046;-81
2024/03/01 10:32:53;;;;;;;7.00;3.38;;;11.20;99.90;;;;;;4990946;28;20046;-81
2024/03/01 10:35:23;;;;;;;4.50;2.65;;;11.50;99.90;;;;;;4984697;28;20392;-82
2024/03/01 10:38:11;;;;;;;5.82;3.10;;;11.60;99.90;;;;;;5013420;28;20519;-84
2024/03/01 10:40:53;;;;;;;6.75;3.55;;;11.80;99.90;;;;;;4960240;28;20625;-80
2024/03/01 10:43:57;;;;;;;6.35;3.45;;;12.10;99.90;;;;;;4977988;28;20061;-80
2024/03/01 10:46:36;;;;;;;6.30;2.67;;;12.60;99.90;;;;;;4961245;28;20050;-84
2024/03/01 10:49:19;;;;;;;5.45;2.00;;;12.90;99.90;;;;;;4982291;28;20028;-83
2024/03/01 10:51:53;;;;;;;;;;;13.10;99.90;;;;;;5001190;28;20033;-81
2024/03/01 10:54:21;;;;;;;6.72;2.38;;;13.50;99.90;;;;;;4964622;28;20283;-81
2024/03/01 10:56:50;;;;;;;5.97;2.75;;;13.70;99.90;;;;;;4984084;28;20038;-81
2024/03/01 10:59:34;;;;;;;7.18;2.53;;;13.70;99.90;;;;;;4976462;28;20025;-82
2024/03/01 11:02:12;;;;;;;5.32;2.92;;;13.60;99.90;;;;;;4974881;28;20072;-81
2024/03/01 11:04:49;;;;;;;6.38;2.85;;;13.10;99.90;;;;;;4960145;28;20507;-82
2024/03/01 11:07:36;;;;;;;6.57;2.85;;;12.90;99.90;;;;;;4981531;28;20533;-81
2024/03/01 11:10:12;;;;;;;7.50;2.67;;;12.80;99.90;;;;;;4999815;28;20591;-82
2024/03/01 11:12:39;;;;;;;6.20;2.20;;;13.00;99.90;;;;;;4964867;28;20037;-80
2024/03/01 11:15:17;;;;;;;4.80;1.73;;;12.90;99.90;;;;;;4976209;28;20057;-80
2024/03/01 11:17:47;;;;;;;4.40;1.80;;;13.00;99.90;;;;;;4996504;28;20044;-80
2024/03/01 11:20:45;;;;;;;5.25;1.75;;;13.20;99.90;;;;;;4988058;28;20052;-80
2024/03/01 11:23:33;;;;;;;4.95;1.77;;;13.60;99.90;;;;;;4998829;28;20049;-78
2024/03/01 11:26:26;;;;;;;3.85;1.80;;;13.90;99.90;;;;;;4999901;28;20045;-79
2024/03/01 11:28:57;;;;;;;4.53;1.25;;;13.60;99.90;;;;;;4980569;28;20502;-79
2024/03/01 11:31:29;;;;;;;3.42;1.55;;;13.40;99.90;;;;;;4996797;28;20056;-81
2024/03/01 11:34:05;;;;;;;5.65;2.00;;;13.10;99.90;;;;;;4995806;28;20042;-81
2024/03/01 11:36:37;;;;;;;3.40;1.13;;;12.80;99.90;;;;;;4998421;28;20040;-79
2024/03/01 11:39:33;;;;;;;3.22;1.73;;;12.50;99.90;;;;;;4995571;28;20038;-80
2024/03/01 11:42:17;;;;;;;2.78;1.17;;;12.20;99.90;;;;;;4997453;28;20670;-79
2024/03/01 11:45:08;;;;;;;4.05;1.45;;;11.90;99.90;;;;;;4966347;28;20049;-78
2024/03/01 11:47:47;;;;;;;4.10;1.58;;;11.70;99.90;;;;;;5021294;28;20337;-78
2024/03/01 11:50:26;;;;;;;4.35;1.60;;;11.50;99.90;;;;;;4985145;28;20050;-79
2024/03/01 11:52:59;;;;;;;6.00;1.58;;;11.50;99.90;;;;;;4981348;28;20048;-78
2024/03/01 11:55:37;;;;;;;;;;;11.50;99.90;;;;;;4996436;28;20037;-78
2024/03/01 11:58:31;;;;;;;3.08;1.10;;;11.50;99.90;;;;;;4993185;28;19924;-79
2024/03/01 12:01:04;;;;;;;3.30;1.00;;;11.60;99.90;;;;;;4967129;28;20551;-77
2024/03/01 12:03:40;;;;;;;4.13;1.00;;;11.70;99.90;;;;;;5012553;28;20045;-77
2024/03/01 12:06:44;;;;;;;6.22;1.30;;;11.60;99.90;;;;;;5000828;28;20404;-78
2024/03/01 12:09:13;;;;;;;2.88;0.60;;;11.50;99.90;;;;;;5000506;28;20037;-77
2024/03/01 12:11:48;;;;;;;5.07;1.15;;;11.40;99.90;;;;;;5012479;28;20045;-80
2024/03/01 12:14:21;;;;;;;5.03;1.58;;;11.40;99.90;;;;;;5000591;28;20048;-78
2024/03/01 12:17:01;;;;;;;3.72;1.08;;;11.60;99.90;;;;;;5033149;28;20034;-78
2024/03/01 12:19:43;;;;;;;4.05;0.93;;;12.00;99.90;;;;;;4985338;28;20045;-78
2024/03/01 12:22:54;;;;;;;4.05;1.00;;;12.70;99.90;;;;;;4997770;28;20037;-77
2024/03/01 12:25:23;;;;;;;3.45;0.80;;;13.50;99.90;;;;;;4984727;28;20400;-76
2024/03/01 12:28:11;;;;;;;2.22;0.60;;;14.50;99.90;;;;;;5013302;28;20055;-77
2024/03/01 12:30:38;;;;;;;2.95;0.50;;;15.30;99.90;;;;;;4999418;28;20065;-78
2024/03/01 12:33:13;;;;;;;3.10;0.55;;;16.00;99.90;;;;;;5004184;28;20389;-78
2024/03/01 12:36:30;;;;;;;1.70;0.40;;;16.50;99.90;;;;;;4982735;28;20045;-78
2024/03/01 12:39:03;;;;;;;1.33;0.60;;;17.30;99.90;;;;;;4940358;28;20038;-78
2024/03/01 12:41:33;;;;;;;2.17;0.40;;;17.90;99.90;;;;;;4923378;28;20069;-78
2024/03/01 12:44:13;;;;;;;1.13;0.30;;;18.00;99.90;;;;;;4957287;28;20038;-77
2024/03/01 12:47:18;;;;;;;3.95;0.50;;;17.60;99.90;;;;;;4955048;28;20056;-79
2024/03/01 12:49:50;;;;;;;1.08;0.38;;;16.90;99.90;;;;;;4905658;29;20055;-77
2024/03/01 12:52:53;;;;;;;2.53;0.40;;;15.90;99.90;;;;;;4918734;28;20047;-77
2024/03/01 12:55:36;;;;;;;1.95;0.40;;;15.00;99.90;;;;;;4958054;28;20042;-78
2024/03/01 12:58:09;;;;;;;2.33;0.40;;;14.30;99.90;;;;;;4938315;28;20054;-79
2024/03/01 13:01:01;;;;;;;1.50;0.40;;;13.70;99.90;;;;;;4953889;28;20054;-77
2024/03/01 13:03:31;;;;;;;2.08;0.45;;;13.20;99.90;;;;;;4956736;28;20042;-77
2024/03/01 13:05:58;;;;;;;1.42;0.50;;;12.80;99.90;;;;;;4929685;28;20042;-77
2024/03/01 13:08:37;;;;;;;2.17;0.50;;;12.60;99.90;;;;;;4941847;28;20049;-76
2024/03/01 13:11:04;;;;;;;1.77;0.35;;;12.50;99.90;;;;;;4952272;28;20502;-79